createdAt,value
2023-01-21T00:00:22.667Z,12.93
2023-01-21T00:02:54.791Z,17.55
2023-01-21T00:05:29.714Z,13.88
2023-01-21T00:08:02.742Z,15.43
2023-01-21T00:10:34.633Z,14.82
2023-01-21T00:13:06.393Z,15.77
2023-01-21T00:15:38.158Z,15.00
2023-01-21T00:18:09.862Z,13.20
2023-01-21T00:20:41.575Z,16.35
2023-01-21T00:23:13.291Z,15.55
2023-01-21T00:25:45.123Z,13.90
2023-01-21T00:28:16.781Z,16.02
2023-01-21T00:30:50.722Z,14.82
2023-01-21T00:33:23.809Z,13.48
2023-01-21T00:36:02.757Z,15.32
2023-01-21T00:38:36.860Z,14.70
2023-01-21T00:41:11.280Z,14.88
2023-01-21T00:43:44.157Z,14.63
2023-01-21T00:46:16.470Z,15.93
2023-01-21T00:48:48.185Z,14.48
2023-01-21T00:51:19.922Z,13.77
2023-01-21T00:53:51.655Z,15.85
2023-01-21T00:56:23.742Z,17.40
2023-01-21T00:58:55.536Z,15.05
2023-01-21T01:01:34.527Z,15.88
2023-01-21T01:04:06.300Z,15.05
2023-01-21T01:06:38.018Z,12.85
2023-01-21T01:09:10.023Z,16.70
2023-01-21T01:11:41.701Z,12.85
2023-01-21T01:14:13.372Z,12.63
2023-01-21T01:16:45.037Z,13.38
2023-01-21T01:19:17.405Z,12.85
2023-01-21T01:21:49.075Z,13.63
2023-01-21T01:24:20.764Z,14.07
2023-01-21T01:26:52.480Z,14.55
2023-01-21T01:29:28.998Z,18.90
2023-01-21T01:32:00.679Z,13.40
2023-01-21T01:34:32.311Z,13.73
2023-01-21T01:37:04.422Z,15.18
2023-01-21T01:39:36.059Z,15.45
2023-01-21T01:42:14.463Z,15.95
2023-01-21T01:44:59.605Z,15.20
2023-01-21T01:50:11.580Z,12.90
2023-01-21T01:52:44.554Z,17.45
2023-01-21T01:55:19.220Z,14.98
2023-01-21T01:57:55.404Z,17.80
2023-01-21T02:00:27.425Z,16.23
2023-01-21T02:03:17.717Z,22.15
2023-01-21T02:05:50.922Z,16.95
2023-01-21T02:08:23.824Z,17.73
2023-01-21T02:10:56.971Z,17.60
2023-01-21T02:13:31.297Z,18.02
2023-01-21T02:16:15.001Z,17.85
2023-01-21T02:19:39.038Z,16.05
2023-01-21T02:22:29.222Z,20.52
2023-01-21T02:25:29.176Z,20.30
2023-01-21T02:28:22.162Z,18.67
2023-01-21T02:30:56.639Z,16.35
2023-01-21T02:33:52.539Z,22.13
2023-01-21T02:36:30.068Z,18.67
2023-01-21T02:39:20.396Z,19.98
2023-01-21T02:42:06.674Z,20.10
2023-01-21T02:44:46.802Z,19.85
2023-01-21T02:47:32.618Z,21.40
2023-01-21T02:50:11.123Z,19.30
2023-01-21T02:52:42.760Z,18.50
2023-01-21T02:55:16.652Z,15.38
2023-01-21T02:57:57.346Z,18.20
2023-01-21T03:00:48.757Z,16.52
2023-01-21T03:03:48.685Z,18.60
2023-01-21T03:06:43.946Z,18.95
2023-01-21T03:09:25.152Z,22.27
2023-01-21T03:12:20.036Z,17.05
2023-01-21T03:15:40.351Z,17.38
2023-01-21T03:18:34.224Z,18.00
2023-01-21T03:21:18.385Z,20.35
2023-01-21T03:23:54.206Z,18.75
2023-01-21T03:26:33.713Z,21.17
2023-01-21T03:29:11.922Z,17.70
2023-01-21T03:31:48.665Z,17.17
2023-01-21T03:34:24.673Z,20.70
2023-01-21T03:37:28.956Z,19.75
2023-01-21T03:40:19.269Z,17.67
2023-01-21T03:42:52.655Z,17.75
2023-01-21T03:45:41.315Z,16.42
2023-01-21T03:48:24.929Z,15.90
2023-01-21T03:51:02.326Z,17.67
2023-01-21T03:53:34.074Z,13.45
2023-01-21T03:56:05.903Z,16.33
2023-01-21T03:58:37.613Z,16.40
2023-01-21T04:01:09.351Z,13.60
2023-01-21T04:03:43.415Z,14.95
2023-01-21T04:06:20.408Z,22.00
2023-01-21T04:08:52.204Z,14.82
2023-01-21T04:11:24.045Z,15.43
2023-01-21T04:13:55.797Z,15.00
2023-01-21T04:16:27.695Z,16.25
2023-01-21T04:18:59.571Z,13.50
2023-01-21T04:21:31.255Z,16.08
2023-01-21T04:24:02.987Z,13.88
2023-01-21T04:26:34.660Z,13.35
2023-01-21T04:29:06.364Z,12.75
2023-01-21T04:31:38.105Z,11.18
2023-01-21T04:34:10.033Z,11.75
2023-01-21T04:36:41.743Z,12.90
2023-01-21T04:39:13.623Z,12.48
2023-01-21T04:41:45.767Z,13.68
2023-01-21T04:44:17.591Z,10.30
2023-01-21T04:46:49.613Z,15.13
2023-01-21T04:49:21.344Z,14.10
2023-01-21T04:51:53.372Z,16.40
2023-01-21T04:54:25.142Z,14.35
2023-01-21T04:56:56.941Z,15.38
2023-01-21T04:59:28.687Z,14.57
2023-01-21T05:02:01.376Z,13.10
2023-01-21T05:04:33.153Z,13.60
2023-01-21T05:07:05.472Z,14.43
2023-01-21T05:09:37.440Z,14.13
2023-01-21T05:12:09.668Z,13.18
2023-01-21T05:14:41.348Z,15.38
2023-01-21T05:17:13.025Z,15.00
2023-01-21T05:19:44.954Z,13.02
2023-01-21T05:22:17.531Z,13.55
2023-01-21T05:24:49.177Z,12.57
2023-01-21T05:27:21.769Z,11.63
2023-01-21T05:29:53.703Z,14.90
2023-01-21T05:32:25.365Z,13.05
2023-01-21T05:34:57.071Z,13.88
2023-01-21T05:37:28.732Z,15.32
2023-01-21T05:40:00.415Z,14.05
2023-01-21T05:42:32.102Z,13.75
2023-01-21T05:45:05.799Z,14.05
2023-01-21T05:47:38.094Z,13.13
2023-01-21T05:50:10.919Z,12.05
2023-01-21T05:52:42.606Z,13.32
2023-01-21T05:55:14.363Z,12.48
2023-01-21T05:57:46.085Z,10.82
2023-01-21T06:00:18.355Z,11.55
2023-01-21T06:02:50.294Z,13.13
2023-01-21T06:05:22.266Z,12.60
2023-01-21T06:07:59.915Z,10.35
2023-01-21T06:10:31.562Z,11.23
2023-01-21T06:13:03.763Z,12.80
2023-01-21T06:15:35.571Z,12.70
2023-01-21T06:18:07.627Z,11.38
2023-01-21T06:20:39.521Z,10.27
2023-01-21T06:23:11.177Z,13.20
2023-01-21T06:25:43.612Z,11.10
2023-01-21T06:28:15.271Z,13.80
2023-01-21T06:30:47.218Z,11.75
2023-01-21T06:33:18.951Z,10.88
2023-01-21T06:35:50.699Z,11.43
2023-01-21T06:38:22.330Z,10.95
2023-01-21T06:40:56.033Z,11.85
2023-01-21T06:43:27.675Z,13.00
2023-01-21T06:46:02.505Z,11.18
2023-01-21T06:51:08.771Z,13.32
2023-01-21T06:53:40.513Z,10.50
2023-01-21T06:56:12.262Z,10.57
2023-01-21T06:58:43.883Z,11.30
2023-01-21T07:01:18.365Z,11.77
2023-01-21T07:03:52.982Z,11.27
2023-01-21T07:06:26.078Z,13.07
2023-01-21T07:08:57.735Z,11.00
2023-01-21T07:11:29.997Z,10.85
2023-01-21T07:14:03.717Z,13.48
2023-01-21T07:16:35.500Z,10.95
2023-01-21T07:19:07.235Z,10.80
2023-01-21T07:21:41.329Z,10.73
2023-01-21T07:24:13.073Z,14.68
2023-01-21T07:26:44.729Z,11.93
2023-01-21T07:29:16.461Z,11.85
2023-01-21T07:31:48.231Z,12.05
2023-01-21T07:34:20.190Z,9.13
2023-01-21T07:36:51.891Z,9.98
2023-01-21T07:39:25.810Z,9.77
2023-01-21T07:41:57.566Z,9.02
2023-01-21T07:44:31.529Z,11.27
2023-01-21T07:47:03.381Z,12.60
2023-01-21T07:49:35.077Z,9.63
2023-01-21T07:52:06.900Z,8.77
2023-01-21T07:54:41.571Z,8.75
2023-01-21T07:57:14.791Z,8.70
2023-01-21T07:59:46.424Z,8.98
2023-01-21T08:02:18.248Z,11.30
2023-01-21T08:04:50.011Z,10.60
2023-01-21T08:07:21.740Z,10.30
2023-01-21T08:09:53.434Z,8.00
2023-01-21T08:12:27.161Z,9.15
2023-01-21T08:14:59.013Z,8.50
2023-01-21T08:17:30.759Z,9.65
2023-01-21T08:20:02.435Z,9.90
2023-01-21T08:22:34.190Z,8.60
2023-01-21T08:25:06.588Z,9.65
2023-01-21T08:27:38.334Z,7.63
2023-01-21T08:30:10.516Z,9.95
2023-01-21T08:32:42.210Z,9.60
2023-01-21T08:35:13.908Z,10.38
2023-01-21T08:37:45.611Z,8.18
2023-01-21T08:40:17.280Z,11.07
2023-01-21T08:42:48.980Z,7.88
2023-01-21T08:45:20.922Z,7.70
2023-01-21T08:47:52.854Z,12.38
2023-01-21T08:50:24.603Z,7.10
2023-01-21T08:52:58.452Z,9.73
2023-01-21T08:55:30.127Z,9.68
2023-01-21T08:58:02.220Z,8.85
2023-01-21T09:00:34.206Z,7.80
2023-01-21T09:03:08.879Z,7.70
2023-01-21T09:05:40.583Z,6.30
2023-01-21T09:08:12.358Z,7.15
2023-01-21T09:11:02.555Z,7.28
2023-01-21T09:13:40.492Z,8.57
2023-01-21T09:16:15.392Z,8.40
2023-01-21T09:18:47.650Z,8.85
2023-01-21T09:21:19.342Z,9.70
2023-01-21T09:23:51.018Z,10.30
2023-01-21T09:26:24.072Z,7.65
2023-01-21T09:28:58.686Z,10.05
2023-01-21T09:31:35.656Z,12.00
2023-01-21T09:34:08.158Z,9.40
2023-01-21T09:36:39.922Z,9.00
2023-01-21T09:39:11.565Z,9.63
2023-01-21T09:41:52.595Z,13.23
2023-01-21T09:44:46.925Z,11.73
2023-01-21T09:47:41.391Z,9.50
2023-01-21T09:50:23.820Z,9.93
2023-01-21T09:53:07.518Z,9.95
2023-01-21T09:55:46.833Z,14.10
2023-01-21T09:58:34.457Z,11.65
2023-01-21T10:01:38.847Z,10.50
2023-01-21T10:04:33.822Z,13.20
2023-01-21T10:07:34.069Z,15.68
2023-01-21T10:10:31.586Z,13.18
2023-01-21T10:13:32.739Z,14.70
2023-01-21T10:16:13.471Z,12.73
2023-01-21T10:18:53.327Z,12.90
2023-01-21T10:21:52.588Z,14.05
2023-01-21T10:24:28.701Z,12.15
2023-01-21T10:27:02.309Z,16.58
2023-01-21T10:29:41.664Z,14.73
2023-01-21T10:32:17.995Z,14.13
2023-01-21T10:34:55.491Z,14.25
2023-01-21T10:37:33.175Z,16.25
2023-01-21T10:40:42.295Z,14.23
2023-01-21T10:43:35.435Z,15.25
2023-01-21T10:46:16.869Z,14.00
2023-01-21T10:49:21.210Z,15.38
2023-01-21T10:52:30.953Z,13.85
2023-01-21T10:55:13.289Z,13.18
2023-01-21T10:57:55.484Z,14.68
2023-01-21T11:00:37.031Z,13.40
2023-01-21T11:03:20.104Z,14.57
2023-01-21T11:05:51.737Z,14.57
2023-01-21T11:08:26.311Z,13.27
2023-01-21T11:10:59.482Z,14.07
2023-01-21T11:13:31.164Z,13.93
2023-01-21T11:16:04.634Z,15.57
2023-01-21T11:18:39.925Z,14.60
2023-01-21T11:21:19.095Z,14.13
2023-01-21T11:23:55.514Z,15.40
2023-01-21T11:26:29.862Z,17.75
2023-01-21T11:29:21.566Z,16.05
2023-01-21T11:32:02.854Z,16.20
2023-01-21T11:34:36.333Z,15.80
2023-01-21T11:40:05.304Z,14.95
2023-01-21T11:42:47.643Z,15.07
2023-01-21T11:45:34.041Z,17.42
2023-01-21T11:48:22.116Z,15.50
2023-01-21T11:51:08.190Z,12.32
2023-01-21T11:53:41.213Z,15.88
2023-01-21T11:56:16.259Z,11.93
2023-01-21T11:58:48.459Z,14.27
2023-01-21T12:01:24.265Z,17.63
2023-01-21T12:04:00.952Z,17.95
2023-01-21T12:06:34.890Z,20.33
2023-01-21T12:09:19.750Z,18.30
2023-01-21T12:12:26.995Z,20.70
2023-01-21T12:15:03.970Z,18.45
2023-01-21T12:17:48.375Z,20.45
2023-01-21T12:20:55.354Z,20.83
2023-01-21T12:23:52.624Z,22.30
2023-01-21T12:26:45.526Z,20.25
2023-01-21T12:29:39.027Z,21.63
2023-01-21T12:32:39.045Z,21.58
2023-01-21T12:35:22.482Z,20.63
2023-01-21T12:38:11.259Z,20.42
2023-01-21T12:41:10.420Z,21.10
2023-01-21T12:43:50.037Z,21.17
2023-01-21T12:46:27.640Z,20.10
2023-01-21T12:49:18.575Z,18.35
2023-01-21T12:51:56.514Z,17.65
2023-01-21T12:54:50.444Z,18.38
2023-01-21T12:57:34.754Z,20.10
2023-01-21T13:00:25.059Z,17.60
2023-01-21T13:03:17.369Z,18.15
2023-01-21T13:06:03.035Z,18.08
2023-01-21T13:08:49.604Z,18.00
2023-01-21T13:11:36.998Z,19.08
2023-01-21T13:14:08.653Z,17.52
2023-01-21T13:17:02.501Z,19.20
2023-01-21T13:19:35.776Z,18.77
2023-01-21T13:22:13.483Z,16.58
2023-01-21T13:25:22.316Z,17.05
2023-01-21T13:28:20.910Z,17.80
2023-01-21T13:31:22.123Z,16.33
2023-01-21T13:34:14.053Z,16.70
2023-01-21T13:36:47.052Z,15.85
2023-01-21T13:39:28.306Z,17.10
2023-01-21T13:42:37.155Z,15.38
2023-01-21T13:45:36.175Z,17.83
2023-01-21T13:48:10.840Z,15.52
2023-01-21T13:51:00.400Z,15.40
2023-01-21T13:54:11.661Z,19.30
2023-01-21T13:57:01.645Z,15.98
2023-01-21T13:59:45.655Z,18.27
2023-01-21T14:02:45.252Z,16.52
2023-01-21T14:05:38.862Z,14.10
2023-01-21T14:08:10.456Z,14.90
2023-01-21T14:10:54.274Z,16.67
2023-01-21T14:13:51.038Z,16.15
2023-01-21T14:16:48.744Z,17.15
2023-01-21T14:19:26.690Z,14.93
2023-01-21T14:22:13.184Z,14.82
2023-01-21T14:24:57.720Z,15.93
2023-01-21T14:27:46.876Z,16.63
2023-01-21T14:30:31.476Z,15.30
2023-01-21T14:33:09.025Z,16.80
2023-01-21T14:35:54.095Z,14.73
2023-01-21T14:38:37.855Z,15.27
2023-01-21T14:41:11.461Z,16.08
2023-01-21T14:43:50.922Z,16.20
2023-01-21T14:46:27.473Z,15.40
2023-01-21T14:49:08.542Z,15.90
2023-01-21T14:51:51.945Z,15.35
2023-01-21T14:54:27.012Z,16.08
2023-01-21T14:57:18.161Z,16.33
2023-01-21T14:59:53.323Z,16.95
2023-01-21T15:02:33.336Z,16.25
2023-01-21T15:05:22.328Z,15.63
2023-01-21T15:08:20.638Z,14.02
2023-01-21T15:10:58.804Z,15.00
2023-01-21T15:13:43.369Z,16.33
2023-01-21T15:16:17.872Z,16.77
2023-01-21T15:19:19.856Z,15.25
2023-01-21T15:22:00.383Z,15.88
2023-01-21T15:24:39.746Z,12.88
2023-01-21T15:27:19.071Z,15.60
2023-01-21T15:29:53.768Z,17.25
2023-01-21T15:32:28.352Z,15.98
2023-01-21T15:35:12.688Z,12.63
2023-01-21T15:37:47.184Z,16.10
2023-01-21T15:40:29.254Z,15.57
2023-01-21T15:43:04.971Z,14.05
2023-01-21T15:45:53.057Z,14.70
2023-01-21T15:48:50.211Z,12.57
2023-01-21T15:51:36.773Z,14.10
2023-01-21T15:54:39.359Z,11.77
2023-01-21T15:57:22.970Z,16.25
2023-01-21T16:00:13.826Z,11.23
2023-01-21T16:02:57.886Z,14.43
2023-01-21T16:05:59.469Z,15.70
2023-01-21T16:08:48.229Z,14.57
2023-01-21T16:11:44.169Z,12.57
2023-01-21T16:14:52.461Z,13.63
2023-01-21T16:17:55.294Z,11.52
2023-01-21T16:20:26.949Z,11.95
2023-01-21T16:23:02.350Z,13.63
2023-01-21T16:25:34.061Z,10.23
2023-01-21T16:28:05.744Z,12.40
2023-01-21T16:30:37.471Z,12.63
2023-01-21T16:33:14.173Z,13.75
2023-01-21T16:35:57.311Z,11.98
2023-01-21T16:38:32.003Z,11.25
2023-01-21T16:41:06.646Z,9.98
2023-01-21T16:43:50.490Z,12.27
2023-01-21T16:46:24.307Z,13.02
2023-01-21T16:48:58.213Z,12.10
2023-01-21T16:51:33.995Z,12.40
2023-01-21T16:54:17.648Z,12.77
2023-01-21T16:57:25.631Z,11.18
2023-01-21T17:02:32.576Z,9.18
2023-01-21T17:05:05.326Z,11.55
2023-01-21T17:07:51.871Z,14.95
2023-01-21T17:10:35.206Z,30.27
2023-01-21T17:13:15.920Z,21.00
2023-01-21T17:15:57.578Z,12.55
2023-01-21T17:18:38.797Z,10.45
2023-01-21T17:21:17.934Z,9.85
2023-01-21T17:23:54.923Z,8.85
2023-01-21T17:26:31.650Z,9.27
2023-01-21T17:29:09.400Z,9.45
2023-01-21T17:31:42.755Z,9.82
2023-01-21T17:34:20.784Z,9.52
2023-01-21T17:36:54.867Z,9.80
2023-01-21T17:39:48.870Z,9.05
2023-01-21T17:42:22.690Z,8.90
2023-01-21T17:45:00.781Z,9.25
2023-01-21T17:47:48.894Z,8.25
2023-01-21T17:50:31.351Z,11.10
2023-01-21T17:53:13.929Z,8.80
2023-01-21T17:55:56.911Z,8.80
2023-01-21T17:58:31.639Z,8.38
2023-01-21T18:01:04.476Z,9.07
2023-01-21T18:03:38.652Z,12.30
2023-01-21T18:06:20.247Z,8.05
2023-01-21T18:08:52.891Z,10.05
2023-01-21T18:11:24.740Z,11.35
2023-01-21T18:13:56.436Z,9.43
2023-01-21T18:16:28.270Z,10.55
2023-01-21T18:19:00.148Z,10.27
2023-01-21T18:21:32.051Z,10.25
2023-01-21T18:24:04.006Z,9.27
2023-01-21T18:26:35.820Z,14.00
2023-01-21T18:29:11.655Z,9.77
2023-01-21T18:31:43.495Z,11.55
2023-01-21T18:34:16.441Z,10.13
2023-01-21T18:36:48.327Z,8.70
2023-01-21T18:39:20.576Z,11.15
2023-01-21T18:41:57.962Z,8.65
2023-01-21T18:44:31.228Z,9.52
2023-01-21T18:47:33.622Z,9.68
2023-01-21T18:50:07.847Z,8.20
2023-01-21T18:52:39.528Z,9.43
2023-01-21T18:55:15.032Z,9.57
2023-01-21T18:57:53.482Z,8.73
2023-01-21T19:00:38.519Z,7.72
2023-01-21T19:03:13.848Z,8.13
2023-01-21T19:05:49.991Z,8.18
2023-01-21T19:08:27.709Z,9.52
2023-01-21T19:10:59.471Z,9.32
2023-01-21T19:13:31.140Z,9.25
2023-01-21T19:16:03.104Z,8.75
2023-01-21T19:18:36.175Z,9.70
2023-01-21T19:21:08.332Z,8.32
2023-01-21T19:23:40.438Z,10.40
2023-01-21T19:26:13.863Z,9.68
2023-01-21T19:28:45.651Z,9.32
2023-01-21T19:31:17.375Z,10.57
2023-01-21T19:33:49.515Z,9.38
2023-01-21T19:36:22.671Z,8.15
2023-01-21T19:38:56.843Z,9.68
2023-01-21T19:41:28.591Z,8.88
2023-01-21T19:44:00.309Z,8.85
2023-01-21T19:46:32.088Z,9.07
2023-01-21T19:49:14.501Z,8.05
2023-01-21T19:51:46.460Z,7.63
2023-01-21T19:54:18.124Z,10.00
2023-01-21T19:56:49.970Z,7.25
2023-01-21T19:59:25.973Z,8.35
2023-01-21T20:01:57.715Z,7.75
2023-01-21T20:04:29.367Z,7.93
2023-01-21T20:07:02.440Z,8.70
2023-01-21T20:09:34.331Z,7.95
2023-01-21T20:12:10.988Z,7.93
2023-01-21T20:14:49.540Z,7.45
2023-01-21T20:17:21.718Z,7.65
2023-01-21T20:19:53.415Z,8.55
2023-01-21T20:22:26.351Z,6.90
2023-01-21T20:24:58.037Z,7.45
2023-01-21T20:27:29.795Z,7.45
2023-01-21T20:30:16.548Z,7.07
2023-01-21T20:32:51.118Z,7.80
2023-01-21T20:35:26.877Z,7.90
2023-01-21T20:38:00.824Z,8.38
2023-01-21T20:40:32.477Z,8.50
2023-01-21T20:43:04.272Z,6.53
2023-01-21T20:45:41.680Z,7.05
2023-01-21T20:48:20.069Z,6.43
2023-01-21T20:50:52.502Z,7.25
2023-01-21T20:53:24.588Z,6.93
2023-01-21T20:55:56.771Z,8.32
2023-01-21T20:58:28.615Z,6.40
2023-01-21T21:01:00.379Z,7.95
2023-01-21T21:03:33.258Z,8.82
2023-01-21T21:06:12.099Z,7.85
2023-01-21T21:08:45.778Z,9.30
2023-01-21T21:13:52.556Z,7.88
2023-01-21T21:16:31.894Z,8.32
2023-01-21T21:19:04.078Z,7.03
2023-01-21T21:21:35.772Z,6.97
2023-01-21T21:24:08.466Z,7.93
2023-01-21T21:26:40.894Z,7.68
2023-01-21T21:29:14.263Z,8.15
2023-01-21T21:31:46.001Z,8.32
2023-01-21T21:34:25.788Z,7.82
2023-01-21T21:36:57.491Z,8.90
2023-01-21T21:39:32.458Z,7.57
2023-01-21T21:42:22.583Z,6.70
2023-01-21T21:44:55.657Z,8.95
2023-01-21T21:47:56.103Z,7.82
2023-01-21T21:50:27.771Z,7.00
2023-01-21T21:53:00.984Z,8.70
2023-01-21T21:55:33.912Z,7.75
2023-01-21T21:58:05.813Z,7.55
2023-01-21T22:00:37.484Z,7.60
2023-01-21T22:03:10.904Z,9.27
2023-01-21T22:05:50.996Z,7.82
2023-01-21T22:08:24.945Z,7.50
2023-01-21T22:10:57.237Z,7.40
2023-01-21T22:13:29.360Z,8.77
2023-01-21T22:16:01.808Z,8.95
2023-01-21T22:18:35.774Z,8.00
2023-01-21T22:21:16.359Z,8.63
2023-01-21T22:23:48.877Z,9.10
2023-01-21T22:26:25.526Z,9.05
2023-01-21T22:28:57.256Z,7.85
2023-01-21T22:31:31.361Z,10.10
2023-01-21T22:34:03.236Z,7.38
2023-01-21T22:36:39.700Z,9.38
2023-01-21T22:41:43.429Z,10.35
2023-01-21T22:44:15.542Z,7.85
2023-01-21T22:46:47.957Z,8.25
2023-01-21T22:49:19.757Z,8.57
2023-01-21T22:51:51.525Z,8.50
2023-01-21T22:54:23.520Z,9.68
2023-01-21T22:56:55.258Z,10.90
2023-01-21T22:59:26.984Z,9.27
2023-01-21T23:01:58.754Z,9.95
2023-01-21T23:04:30.769Z,11.18
2023-01-21T23:07:02.452Z,7.35
2023-01-21T23:09:34.119Z,8.70
2023-01-21T23:12:09.074Z,9.07
2023-01-21T23:14:40.771Z,9.75
2023-01-21T23:17:13.713Z,9.10
2023-01-21T23:19:45.450Z,9.35
2023-01-21T23:22:17.161Z,9.32
2023-01-21T23:24:48.829Z,8.48
2023-01-21T23:27:20.531Z,8.98
2023-01-21T23:29:52.246Z,7.15
2023-01-21T23:32:23.929Z,8.25
2023-01-21T23:34:56.415Z,9.38
2023-01-21T23:37:28.166Z,10.52
2023-01-21T23:40:00.739Z,7.93
2023-01-21T23:42:32.775Z,7.80
2023-01-21T23:45:04.753Z,7.43
2023-01-21T23:47:39.037Z,8.50
2023-01-21T23:50:13.727Z,7.97
2023-01-21T23:52:45.528Z,10.50
2023-01-21T23:55:17.375Z,8.75
2023-01-21T23:57:49.048Z,7.57
